Hoffman, MN (56339)

1:42 AM CDT on September 02, 2014 (GMT -0500)
Hoffman MN | Change Station
CLOSE
Current Station
Personal Weather Station
Location: Hoffman, MN
Elevation: 1240 ft
Nearby Weather Stations

Elev 1240 ft 45.83 °N, 95.78 °W | Updated 1 minute ago

Clear
Clear
58.8 °F
Feels Like 58.8 °F
N
2.2
Wind Variable Wind from WSW
Gusts 3.8 mph

Today
High -- | Low -- °F
--% Chance of Precip.
Yesterday
High -- | Low -- °F
Precip. -- in
6:45 AM 7:59 PM
Waxing Crescent, 48% visible
Pressure 29.84 in
Visibility 10.0 miles
Clouds Clear
Dew Point 58 °F
Humidity 96%
Rainfall 0.00 in
Snow Depth Not available.
UV 0 out of 12
Pollen 5.00 out of 12
Air Quality Not available.
Flu Activity Not available.
METAR KY63 020632Z AUTO 27003KT 10SM CLR 13/12 A2984 RMK AO2 T01260119

More Conditions Fewer Conditions

Pressure 29.84 in
Visibility 10.0 miles
Clouds Clear
Dew Point 58 °F
Humidity 96%
Rainfall 0.00 in
Snow Depth Not available.
UV 0 out of 12
Pollen 5.00 out of 12
Air Quality Not available.
Flu Activity Not available.
METAR KY63 020632Z AUTO 27003KT 10SM CLR 13/12 A2984 RMK AO2 T01260119

More Conditions Fewer Conditions

10-Day Weather Forecast

Almanac

Astronomy

Sep. 02, 2014 Rise Set
Actual Time 6:45 AM CDT 7:59 PM CDT
Civil Twilight 6:14 AM CDT 8:29 PM CDT
Nautical Twilight 5:37 AM CDT 9:06 PM CDT
Astronomical Twilight 4:58 AM CDT 9:45 PM CDT
Moon 2:53 PM CDT No Moon Set
Length of Visible Light 14h 15m
Length of Day
13h 13m
Tomorrow will be 3m 7s shorter.
Waxing Crescent, 48% of the Moon is Illuminated
Today
Waxing Crescent
Sep 2
First Quarter
Sep 8
Full
Sep 15
Last Quarter
Sep 24
New

Today's Extremes

State Highs State Lows

Community

WunderPhotos

Upload Photos

1,749,589 photos uploaded!

WunderBlogs® & News

Nearby

Snow Depth

Station Depth Elevation
No new snow has been reported.

Earthquake Activity

City Distance Mag. Time & Date
No recent earthquake activity has been reported nearby.
Minimum magnitude displayed is 2.5.

Coastal Water Temperatures

Place Temperature
No Stations Reporting

Nearby Weather Stations